Time;durP1;ratioP1;P1;durP2;ratioP2;P2;SDS_P1;SDS_P2;PMS_P1;PMS_P2;Temp;Humidity;BMP_temperature;BMP_pressure;BME280_temperature;BME280_humidity;BME280_pressure;Samples;Min_cycle;Max_cycle;Signal;HPM_P1;HPM_P2
2023/05/08 00:00:47;;;;;;;63.70;60.05;;;;;;;22.96;49.82;101912.34;5111576;28;20028;-70
2023/05/08 00:03:13;;;;;;;65.60;62.00;;;;;;;22.95;49.58;101912.63;5109828;28;20428;-69
2023/05/08 00:05:40;;;;;;;61.85;58.53;;;;;;;22.92;49.73;101919.56;5108551;28;20028;-70
2023/05/08 00:08:06;;;;;;;63.25;59.65;;;;;;;22.92;49.80;101907.72;5111837;28;20058;-70
2023/05/08 00:10:31;;;;;;;64.35;60.72;;;;;;;22.89;49.85;101904.44;5110865;28;20047;-71
2023/05/08 00:12:57;;;;;;;64.63;61.05;;;;;;;22.89;49.58;101911.88;5111304;28;20028;-70
2023/05/08 00:15:23;;;;;;;64.60;60.85;;;;;;;22.87;49.95;101912.19;5110142;28;20482;-70
2023/05/08 00:17:48;;;;;;;63.17;59.88;;;;;;;22.87;49.41;101911.38;5098236;28;20036;-72
2023/05/08 00:20:14;;;;;;;61.40;58.05;;;;;;;22.85;49.60;101899.81;5108010;28;20051;-70
2023/05/08 00:22:39;;;;;;;63.63;60.20;;;;;;;22.84;49.95;101904.50;5111368;28;20115;-70
2023/05/08 00:25:05;;;;;;;62.13;58.53;;;;;;;22.83;49.78;101902.88;5110163;28;20042;-71
2023/05/08 00:27:31;;;;;;;65.03;61.60;;;;;;;22.82;49.50;101903.16;5099385;28;20032;-70
2023/05/08 00:29:57;;;;;;;62.17;58.88;;;;;;;22.80;49.59;101913.66;5091993;28;20032;-70
2023/05/08 00:32:23;;;;;;;66.03;62.42;;;;;;;22.80;49.64;101900.69;5100443;28;20035;-71
2023/05/08 00:34:48;;;;;;;61.80;58.20;;;;;;;22.79;49.77;101909.28;5115196;28;20069;-70
2023/05/08 00:37:14;;;;;;;62.33;58.92;;;;;;;22.78;49.95;101913.13;5106993;28;20111;-71
2023/05/08 00:39:39;;;;;;;63.05;59.53;;;;;;;22.76;49.95;101909.88;5095427;28;20032;-69
2023/05/08 00:42:05;;;;;;;63.10;59.60;;;;;;;22.75;49.41;101905.47;5113798;28;20450;-70
2023/05/08 00:44:30;;;;;;;61.92;58.42;;;;;;;22.74;49.42;101906.59;5114273;28;20040;-69
2023/05/08 00:46:56;;;;;;;62.88;59.40;;;;;;;22.73;49.51;101907.69;5111860;28;20035;-70
2023/05/08 00:49:22;;;;;;;62.92;59.33;;;;;;;22.71;49.67;101912.72;5096011;28;20038;-71
2023/05/08 00:51:51;;;;;;;65.78;62.08;;;;;;;22.69;49.57;101910.25;5094810;28;20512;-71
2023/05/08 00:54:17;;;;;;;60.88;57.58;;;;;;;22.68;49.94;101909.44;5094780;28;20035;-70
2023/05/08 00:56:43;;;;;;;62.30;58.80;;;;;;;22.67;49.55;101913.28;5103085;28;20028;-70
2023/05/08 00:59:12;;;;;;;64.38;60.72;;;;;;;22.65;49.79;101901.75;5099344;28;20104;-70
2023/05/08 01:01:39;;;;;;;62.78;59.38;;;;;;;22.64;49.56;101905.63;5113768;28;20102;-71
2023/05/08 01:04:06;;;;;;;64.13;60.63;;;;;;;22.63;49.54;101912.25;5103560;28;20537;-71
2023/05/08 01:06:32;;;;;;;65.90;62.25;;;;;;;22.63;49.68;101912.25;5113870;28;20131;-71
2023/05/08 01:08:59;;;;;;;64.43;60.60;;;;;;;22.62;49.52;101904.28;5109909;28;20455;-70
2023/05/08 01:11:34;;;;;;;64.43;60.83;;;;;;;22.60;49.92;101907.34;5101545;28;20031;-70
2023/05/08 01:14:18;;;;;;;65.13;61.40;;;;;;;22.60;49.91;101904.59;5105608;28;20024;-70
2023/05/08 01:16:53;;;;;;;61.10;57.72;;;;;;;22.57;49.75;101901.59;5114384;28;20471;-70
2023/05/08 01:19:31;;;;;;;60.67;57.17;;;;;;;22.57;50.07;101904.34;5107436;28;20375;-71
2023/05/08 01:22:08;;;;;;;;;;;;;;;22.62;49.91;101899.56;5100611;28;20035;-71
2023/05/08 01:24:33;;;;;;;58.38;55.13;;;;;;;22.53;49.81;101900.53;5109062;28;19904;-71
2023/05/08 01:27:17;;;;;;;59.40;56.15;;;;;;;22.50;49.51;101901.94;5113020;28;20470;-71
2023/05/08 01:30:06;;;;;;;61.92;58.22;;;;;;;22.48;49.95;101898.69;5110835;28;20479;-70
2023/05/08 01:32:37;;;;;;;61.90;58.17;;;;;;;22.46;49.97;101895.41;5100953;28;20531;-72
2023/05/08 01:35:33;;;;;;;59.63;56.38;;;;;;;22.45;50.16;101891.84;5114144;28;20027;-71
2023/05/08 01:38:21;;;;;;;60.50;56.90;;;;;;;22.43;50.20;101894.06;5114195;27;20027;-70
2023/05/08 01:40:53;;;;;;;65.13;61.55;;;;;;;22.41;49.94;101900.97;5112118;28;20059;-71
2023/05/08 01:43:43;;;;;;;61.78;58.17;;;;;;;22.40;50.30;101894.66;5096992;28;20039;-70
2023/05/08 01:46:15;;;;;;;61.03;56.90;;;;;;;22.39;49.99;101893.00;5094058;28;20073;-70
2023/05/08 01:48:53;;;;;;;63.13;59.63;;;;;;;22.40;50.30;101899.31;5093790;28;20028;-70
2023/05/08 01:51:24;;;;;;;63.17;59.60;;;;;;;22.39;50.16;101900.44;5077609;28;20150;-69
2023/05/08 01:53:59;;;;;;;61.13;57.70;;;;;;;22.38;50.43;101902.38;5111539;28;20027;-71
2023/05/08 01:56:28;;;;;;;62.70;58.92;;;;;;;22.38;50.04;101915.34;5096273;28;20020;-70
2023/05/08 01:58:56;;;;;;;59.67;56.28;;;;;;;22.37;50.13;101906.22;5093604;28;20104;-70
2023/05/08 02:01:24;;;;;;;64.93;61.03;;;;;;;22.37;50.45;101908.16;5102237;28;20051;-72
2023/05/08 02:03:50;;;;;;;64.25;60.45;;;;;;;22.35;49.92;101911.22;5102193;28;20467;-71
2023/05/08 02:06:19;;;;;;;64.07;60.20;;;;;;;22.35;49.88;101914.00;5092855;28;20116;-70
2023/05/08 02:08:46;;;;;;;59.67;56.38;;;;;;;22.35;50.06;101914.00;5101785;28;20039;-69
2023/05/08 02:11:13;;;;;;;62.13;58.63;;;;;;;22.34;50.15;101917.03;5103569;28;20077;-73
2023/05/08 02:13:39;;;;;;;61.67;58.15;;;;;;;22.33;50.28;101918.97;5105464;28;20051;-70
2023/05/08 02:16:08;;;;;;;61.22;57.83;;;;;;;22.32;49.93;101920.06;5113272;28;20035;-72
2023/05/08 02:18:37;;;;;;;60.47;57.05;;;;;;;22.31;49.97;101920.38;5108717;28;20386;-69
2023/05/08 02:21:04;;;;;;;64.65;60.90;;;;;;;22.29;50.49;101923.41;5112868;28;20352;-70
2023/05/08 02:23:33;;;;;;;63.80;60.20;;;;;;;22.28;50.43;101927.28;5095602;28;20024;-70
2023/05/08 02:26:00;;;;;;;63.00;59.40;;;;;;;22.27;49.91;101925.63;5092988;28;20024;-70
2023/05/08 02:28:28;;;;;;;65.03;61.05;;;;;;;22.26;50.00;101915.75;5092856;28;20039;-70
2023/05/08 02:30:55;;;;;;;61.80;58.05;;;;;;;22.25;50.06;101931.44;5093217;28;20028;-71
2023/05/08 02:33:22;;;;;;;61.63;58.13;;;;;;;22.24;49.98;101928.97;5095303;28;20055;-72
2023/05/08 02:35:49;;;;;;;63.65;60.03;;;;;;;22.23;50.08;101927.34;5112241;28;20451;-70
2023/05/08 02:38:18;;;;;;;61.17;57.80;;;;;;;22.21;50.33;101927.63;5111400;28;20039;-70
2023/05/08 02:40:48;;;;;;;61.35;57.42;;;;;;;22.20;50.06;101930.66;5112709;28;20030;-69
2023/05/08 02:43:14;;;;;;;61.42;57.10;;;;;;;22.20;49.91;101931.50;5110228;28;20102;-71
2023/05/08 02:45:51;;;;;;;60.72;57.08;;;;;;;22.18;50.24;101922.69;5092322;28;20108;-70
2023/05/08 02:48:34;;;;;;;62.50;58.90;;;;;;;22.16;50.47;101919.41;5109173;28;20032;-69
2023/05/08 02:51:16;;;;;;;61.05;57.45;;;;;;;22.16;50.51;101918.59;5110921;28;20016;-71
2023/05/08 02:53:53;;;;;;;60.65;57.45;;;;;;;22.12;50.06;101918.31;5095690;28;20024;-71
2023/05/08 02:56:42;;;;;;;62.70;59.28;;;;;;;22.12;49.87;101925.78;5099869;28;20103;-71
2023/05/08 02:59:17;;;;;;;58.25;55.03;;;;;;;22.08;50.34;101917.28;5112458;28;20023;-70
2023/05/08 03:01:53;;;;;;;61.55;58.15;;;;;;;22.07;50.31;101915.63;5108768;28;20035;-70
2023/05/08 03:04:28;;;;;;;58.95;55.53;;;;;;;22.06;50.19;101910.44;5098247;28;20039;-74
2023/05/08 03:06:56;;;;;;;59.83;56.22;;;;;;;22.04;50.03;101910.72;5112111;28;20054;-70
2023/05/08 03:09:25;;;;;;;61.60;58.05;;;;;;;22.03;49.93;101904.41;5115904;27;20024;-70
2023/05/08 03:12:01;;;;;;;60.00;56.47;;;;;;;22.04;50.12;101907.97;5093276;28;20020;-70
2023/05/08 03:14:28;;;;;;;63.00;59.13;;;;;;;22.03;50.07;101909.91;5102382;28;20498;-70
2023/05/08 03:16:57;;;;;;;62.05;58.33;;;;;;;22.01;49.89;101903.06;5094963;28;20490;-70
2023/05/08 03:19:28;;;;;;;59.70;56.15;;;;;;;22.00;50.58;101907.75;5091808;28;20474;-73
2023/05/08 03:21:55;;;;;;;60.17;56.65;;;;;;;22.00;50.27;101904.19;5092373;28;20052;-70
2023/05/08 03:24:24;;;;;;;58.90;55.50;;;;;;;21.99;50.09;101903.34;5103804;28;20039;-77
2023/05/08 03:26:50;;;;;;;57.70;54.60;;;;;;;22.00;50.44;101904.19;5103311;28;20023;-70
2023/05/08 03:29:17;;;;;;;60.80;57.20;;;;;;;21.98;50.08;101906.41;5111860;28;20469;-70
2023/05/08 03:31:43;;;;;;;59.80;56.20;;;;;;;21.97;50.34;101910.25;5109699;28;20420;-70
2023/05/08 03:34:12;;;;;;;60.05;56.30;;;;;;;21.96;50.37;101911.38;5109639;28;20407;-70
2023/05/08 03:36:38;;;;;;;62.05;58.38;;;;;;;21.95;50.40;101902.28;5110359;28;20100;-69
2023/05/08 03:39:04;;;;;;;61.70;57.88;;;;;;;21.95;50.27;101904.25;5097936;28;20032;-70
2023/05/08 03:41:30;;;;;;;60.95;56.95;;;;;;;21.94;50.09;101908.06;5092383;28;20378;-69
2023/05/08 03:43:56;;;;;;;61.75;58.15;;;;;;;21.93;50.13;101911.94;5092120;28;20028;-69
2023/05/08 03:46:22;;;;;;;60.70;57.08;;;;;;;21.91;50.33;101908.66;5098641;28;20019;-70
2023/05/08 03:48:49;;;;;;;57.63;53.95;;;;;;;21.90;50.33;101907.84;5098890;28;20051;-72
2023/05/08 03:51:15;;;;;;;61.55;57.85;;;;;;;21.89;50.42;101910.88;5091738;28;20032;-72
2023/05/08 03:53:40;;;;;;;60.22;56.42;;;;;;;21.89;50.33;101916.38;5091240;28;20075;-69
2023/05/08 03:56:06;;;;;;;62.33;58.67;;;;;;;21.88;50.12;101912.81;5091558;28;20028;-71
2023/05/08 03:58:43;;;;;;;59.78;55.95;;;;;;;21.87;49.98;101911.16;5092468;28;20042;-71
2023/05/08 04:01:24;;;;;;;59.10;55.63;;;;;;;21.86;50.02;101908.72;5111313;28;20098;-71
2023/05/08 04:04:05;;;;;;;59.75;56.17;;;;;;;21.84;49.93;101917.25;5104811;28;20548;-71
2023/05/08 04:06:39;;;;;;;59.03;55.38;;;;;;;21.80;50.00;101917.03;5107789;28;20063;-70
2023/05/08 04:09:17;;;;;;;60.60;57.08;;;;;;;21.80;50.44;101913.47;5109571;28;20035;-72
2023/05/08 04:12:03;;;;;;;58.90;55.25;;;;;;;21.79;49.95;101912.63;5114000;28;20427;-70
2023/05/08 04:14:34;;;;;;;69.93;63.35;;;;;;;21.78;50.28;101918.41;5091397;28;20378;-71
2023/05/08 04:17:03;;;;;;;66.10;61.20;;;;;;;21.77;50.24;101922.25;5094348;28;20023;-70
2023/05/08 04:19:34;;;;;;;63.83;59.25;;;;;;;21.76;50.07;101920.63;5095495;28;20355;-71
2023/05/08 04:22:04;;;;;;;59.72;55.97;;;;;;;21.74;50.50;101923.66;5095388;28;20024;-70
2023/05/08 04:24:32;;;;;;;61.95;58.13;;;;;;;21.74;50.50;101920.09;5096391;28;20035;-70
2023/05/08 04:27:00;;;;;;;58.42;54.90;;;;;;;21.73;49.92;101919.28;5113449;28;20367;-70
2023/05/08 04:29:26;;;;;;;59.45;55.70;;;;;;;21.72;50.26;101927.81;5115343;28;20078;-71
2023/05/08 04:31:52;;;;;;;58.97;55.28;;;;;;;21.71;50.24;101924.25;5113943;28;20459;-69
2023/05/08 04:34:18;;;;;;;62.03;58.30;;;;;;;21.71;50.02;101920.69;5111595;28;20115;-70
2023/05/08 04:36:43;;;;;;;63.33;59.35;;;;;;;21.69;49.89;101931.16;5109091;28;20107;-70
2023/05/08 04:39:09;;;;;;;66.88;62.35;;;;;;;21.70;50.39;101924.56;5114944;28;20490;-70
2023/05/08 04:41:34;;;;;;;65.35;61.05;;;;;;;21.69;49.83;101931.16;5114175;28;20043;-70
2023/05/08 04:44:01;;;;;;;62.67;58.50;;;;;;;21.67;50.04;101939.72;5106718;28;20031;-71
2023/05/08 04:46:26;;;;;;;62.17;58.08;;;;;;;21.66;49.98;101938.06;5097303;28;20032;-72
2023/05/08 04:48:52;;;;;;;59.38;55.70;;;;;;;21.65;50.27;101939.16;5111994;28;20344;-71
2023/05/08 04:51:18;;;;;;;60.95;56.95;;;;;;;21.64;50.43;101940.25;5113648;28;20033;-71
2023/05/08 04:53:43;;;;;;;64.60;60.65;;;;;;;21.63;50.10;101938.63;5113453;28;20028;-72
2023/05/08 04:56:08;;;;;;;60.88;56.58;;;;;;;21.62;50.52;101931.50;5092179;28;20027;-72
2023/05/08 04:58:34;;;;;;;58.28;54.50;;;;;;;21.61;50.23;101935.34;5113914;28;20060;-71
2023/05/08 05:01:03;;;;;;;59.40;55.60;;;;;;;21.60;50.39;101951.03;5107673;28;20050;-71
2023/05/08 05:03:29;;;;;;;59.65;55.85;;;;;;;21.59;50.26;101948.56;5114742;28;20034;-72
2023/05/08 05:05:58;;;;;;;60.13;56.28;;;;;;;21.57;50.48;101948.84;5112482;28;20027;-71
2023/05/08 05:08:24;;;;;;;60.17;55.72;;;;;;;21.57;50.13;101957.09;5113605;28;20475;-71
2023/05/08 05:10:50;;;;;;;58.30;54.55;;;;;;;21.56;50.03;101958.19;5114282;28;20024;-72
2023/05/08 05:13:15;;;;;;;64.78;59.80;;;;;;;21.55;50.09;101958.50;5114489;28;20532;-70
2023/05/08 05:15:43;;;;;;;60.00;55.60;;;;;;;21.54;50.23;101965.91;5104252;28;20032;-71
2023/05/08 05:18:09;;;;;;;66.70;61.30;;;;;;;21.53;50.36;101969.78;5102194;28;20043;-73
2023/05/08 05:20:34;;;;;;;65.55;60.45;;;;;;;21.51;50.72;101969.25;5093792;28;20032;-71
2023/05/08 05:23:00;;;;;;;63.53;58.70;;;;;;;21.52;50.23;101972.81;5107563;28;20436;-71
2023/05/08 05:25:26;;;;;;;64.43;59.03;;;;;;;21.49;50.21;101970.63;5113405;28;20051;-70
2023/05/08 05:27:51;;;;;;;65.13;59.42;;;;;;;21.49;50.18;101976.13;5098561;28;20046;-71
2023/05/08 05:30:17;;;;;;;64.18;59.30;;;;;;;21.49;50.19;101984.38;5110072;28;20168;-71
2023/05/08 05:32:42;;;;;;;65.03;59.65;;;;;;;21.48;50.63;101983.56;5113633;28;20067;-70
2023/05/08 05:35:08;;;;;;;65.57;60.25;;;;;;;21.47;50.71;101981.09;5113842;28;20142;-71
2023/05/08 05:37:34;;;;;;;65.07;59.97;;;;;;;21.46;50.29;101977.53;5110772;28;20387;-71
2023/05/08 05:40:00;;;;;;;63.88;59.00;;;;;;;21.45;50.24;101983.31;5103474;28;20027;-70
2023/05/08 05:42:25;;;;;;;62.17;57.63;;;;;;;21.44;50.34;101976.97;5113757;28;20046;-71
2023/05/08 05:44:50;;;;;;;64.40;59.38;;;;;;;21.45;50.40;101986.06;5111638;28;20402;-70
2023/05/08 05:47:16;;;;;;;64.80;59.47;;;;;;;21.45;50.89;101991.56;5111444;28;20603;-70
2023/05/08 05:49:45;;;;;;;63.45;58.47;;;;;;;21.44;50.74;101996.22;5097769;28;20027;-70
2023/05/08 05:52:11;;;;;;;65.45;60.42;;;;;;;21.44;50.75;101998.16;5093783;28;20023;-70
2023/05/08 05:54:36;;;;;;;66.95;61.85;;;;;;;21.44;50.82;101995.41;5092235;28;20123;-73
2023/05/08 05:57:02;;;;;;;68.25;62.78;;;;;;;21.43;50.70;101999.28;5092980;28;20101;-71
2023/05/08 05:59:28;;;;;;;67.53;57.63;;;;;;;21.44;50.81;101998.16;5094074;28;20067;-73
2023/05/08 06:01:53;;;;;;;63.00;58.08;;;;;;;21.41;50.98;101999.56;5092904;28;20111;-71
2023/05/08 06:04:19;;;;;;;59.33;55.13;;;;;;;21.36;51.01;101996.81;5108680;28;20302;-76
2023/05/08 06:06:44;;;;;;;60.95;56.15;;;;;;;21.36;50.71;102010.53;5113399;28;20113;-71
2023/05/08 06:09:09;;;;;;;58.22;53.72;;;;;;;21.35;50.55;102006.16;5102306;28;20062;-75
2023/05/08 06:11:35;;;;;;;60.42;56.08;;;;;;;21.35;50.49;102004.22;5095417;28;20437;-73
2023/05/08 06:14:00;;;;;;;60.15;55.45;;;;;;;21.35;50.40;102003.41;5108478;27;20023;-72
2023/05/08 06:16:26;;;;;;;59.35;55.35;;;;;;;21.34;50.96;101997.09;5120316;27;20031;-73
2023/05/08 06:18:51;;;;;;;60.22;55.83;;;;;;;21.34;50.44;101997.09;5114315;27;20654;-72
2023/05/08 06:21:17;;;;;;;59.47;55.22;;;;;;;21.35;50.40;102003.41;5116059;27;20027;-76
2023/05/08 06:23:42;;;;;;;60.05;56.03;;;;;;;21.33;50.48;102003.69;5125590;27;20106;-75
2023/05/08 06:26:07;;;;;;;62.47;58.08;;;;;;;21.33;50.49;102006.44;5109878;27;20019;-73
2023/05/08 06:28:33;;;;;;;60.30;56.00;;;;;;;21.33;50.86;102000.13;5118052;27;20047;-72
2023/05/08 06:30:58;;;;;;;60.22;55.97;;;;;;;21.33;50.43;102013.88;5101623;27;20479;-72
2023/05/08 06:33:24;;;;;;;57.08;53.17;;;;;;;21.32;50.76;102017.75;5107147;27;20060;-76
2023/05/08 06:35:49;;;;;;;57.58;53.78;;;;;;;21.31;50.79;102010.56;5112816;27;20081;-79
2023/05/08 06:38:15;;;;;;;62.42;57.95;;;;;;;21.29;50.43;102019.13;5112676;27;20080;-75
2023/05/08 06:40:44;;;;;;;59.67;55.53;;;;;;;21.29;50.84;102019.13;5103907;27;20490;-73
2023/05/08 06:43:11;;;;;;;67.47;61.63;;;;;;;21.30;50.59;102022.69;5122968;27;20390;-73
2023/05/08 06:45:36;;;;;;;58.65;54.65;;;;;;;21.29;51.02;102021.03;5111892;27;20034;-82
2023/05/08 06:48:02;;;;;;;61.88;57.55;;;;;;;21.28;50.96;102022.16;5107999;27;20031;-72
2023/05/08 06:50:27;;;;;;;60.33;56.30;;;;;;;21.28;50.84;102028.47;5116835;27;20059;-73
2023/05/08 06:52:53;;;;;;;57.47;53.47;;;;;;;21.29;50.84;102026.53;5114614;27;20053;-74
2023/05/08 06:55:18;;;;;;;61.95;57.13;;;;;;;21.29;50.32;102021.88;5118850;27;20062;-73
2023/05/08 06:57:44;;;;;;;62.05;57.38;;;;;;;21.28;50.60;102017.47;5108363;27;20467;-81
2023/05/08 07:00:10;;;;;;;58.17;53.72;;;;;;;21.29;50.85;102019.13;5108210;27;20423;-76
2023/05/08 07:02:35;;;;;;;59.17;54.67;;;;;;;21.29;50.49;102015.53;5117824;27;20089;-74
2023/05/08 07:05:01;;;;;;;62.90;58.33;;;;;;;21.29;50.27;102016.38;5115305;27;20813;-75
2023/05/08 07:07:27;;;;;;;58.90;54.90;;;;;;;21.29;50.91;102016.38;5127760;27;20035;-73
2023/05/08 07:09:52;;;;;;;60.47;56.00;;;;;;;21.29;50.78;102016.38;5102058;28;20047;-84
2023/05/08 07:12:18;;;;;;;59.55;55.22;;;;;;;21.31;50.32;102018.81;5099470;27;20034;-72
2023/05/08 07:14:44;;;;;;;56.55;52.60;;;;;;;21.29;50.57;102019.13;5096679;27;20119;-75
2023/05/08 07:17:09;;;;;;;61.20;56.60;;;;;;;21.29;50.49;102008.13;5104251;27;20054;-76
2023/05/08 07:19:35;;;;;;;58.75;54.45;;;;;;;21.29;50.24;102016.38;5112190;27;20114;-73
2023/05/08 07:22:01;;;;;;;60.85;56.28;;;;;;;21.30;50.96;102011.69;5113014;27;20035;-83
2023/05/08 07:24:26;;;;;;;59.17;54.90;;;;;;;21.30;50.65;102019.94;5113692;27;20521;-73
2023/05/08 07:26:52;;;;;;;58.13;53.95;;;;;;;21.31;50.62;102016.91;5104627;27;20034;-75
2023/05/08 07:29:19;;;;;;;59.42;55.28;;;;;;;21.32;50.95;102015.00;5107333;28;20471;-74
2023/05/08 07:31:45;;;;;;;56.90;52.75;;;;;;;21.32;50.72;102017.75;5116013;27;20047;-72
2023/05/08 07:34:11;;;;;;;67.07;61.40;;;;;;;21.32;50.35;102015.00;5107317;27;20076;-74
2023/05/08 07:36:37;;;;;;;70.78;64.97;;;;;;;21.33;50.68;102013.88;5115415;27;20039;-76
2023/05/08 07:39:03;;;;;;;63.60;58.58;;;;;;;21.32;50.61;102013.06;5099598;27;20084;-76
2023/05/08 07:41:28;;;;;;;58.38;54.45;;;;;;;21.33;50.97;102016.63;5106060;28;20031;-74
2023/05/08 07:43:54;;;;;;;63.33;58.08;;;;;;;21.33;50.64;102017.44;5114077;28;20019;-79
2023/05/08 07:46:20;;;;;;;57.80;53.53;;;;;;;21.33;50.81;102020.19;5099384;28;20086;-77
2023/05/08 07:48:46;;;;;;;61.13;56.47;;;;;;;21.33;50.76;102019.38;5108970;28;20486;-74
2023/05/08 07:51:12;;;;;;;62.97;58.28;;;;;;;21.34;50.92;102010.84;5100483;28;20044;-74
2023/05/08 07:53:37;;;;;;;69.50;63.63;;;;;;;21.36;50.95;102027.84;5124370;28;20479;-75
2023/05/08 07:56:03;;;;;;;61.25;56.70;;;;;;;21.37;50.81;102014.97;5101215;28;20034;-75
2023/05/08 07:58:28;;;;;;;58.75;54.45;;;;;;;21.37;50.66;102012.22;5106902;28;20495;-72
2023/05/08 08:00:54;;;;;;;67.65;61.40;;;;;;;21.39;50.53;102016.34;5110789;28;20044;-77
2023/05/08 08:03:19;;;;;;;64.50;59.42;;;;;;;21.40;50.65;102008.91;5110982;27;20031;-76
2023/05/08 08:05:44;;;;;;;68.57;62.53;;;;;;;21.41;50.74;102010.53;5112695;28;20533;-75
2023/05/08 08:08:10;;;;;;;64.60;59.90;;;;;;;21.43;50.44;102010.28;5120616;28;20041;-73
2023/05/08 08:10:35;;;;;;;61.65;56.90;;;;;;;21.42;51.08;102005.88;5117467;28;20544;-72
2023/05/08 08:13:01;;;;;;;60.25;55.97;;;;;;;21.43;50.27;102005.59;5124026;28;20035;-73
2023/05/08 08:15:29;;;;;;;71.80;64.50;;;;;;;21.45;51.04;102000.63;5114739;28;20035;-73
2023/05/08 08:17:55;;;;;;;60.33;55.92;;;;;;;21.47;50.98;102005.81;5120292;27;20158;-86
2023/05/08 08:20:21;;;;;;;60.95;56.20;;;;;;;21.48;50.97;102011.06;5110274;28;20471;-80
2023/05/08 08:22:46;;;;;;;62.78;57.42;;;;;;;21.46;50.74;102012.44;5106071;27;20031;-72
2023/05/08 08:25:12;;;;;;;65.32;59.88;;;;;;;21.49;50.91;102009.13;5114228;28;20042;-71
2023/05/08 08:27:37;;;;;;;62.35;57.60;;;;;;;21.50;50.76;102014.34;5109365;28;20036;-71
2023/05/08 08:30:04;;;;;;;63.80;59.08;;;;;;;21.51;50.65;102012.41;5097349;28;20044;-73
2023/05/08 08:32:29;;;;;;;66.95;61.15;;;;;;;21.53;50.67;102010.19;5117815;27;20023;-70
2023/05/08 08:34:55;;;;;;;71.25;64.60;;;;;;;21.54;51.09;102017.31;5108884;28;20545;-77
2023/05/08 08:37:21;;;;;;;64.45;59.33;;;;;;;21.56;50.85;102015.94;5107512;28;20039;-71
2023/05/08 08:39:47;;;;;;;62.72;58.08;;;;;;;21.57;50.83;102017.59;5110352;28;20024;-70
2023/05/08 08:42:13;;;;;;;63.63;58.60;;;;;;;21.58;50.98;102012.91;5104691;28;20036;-72
2023/05/08 08:44:38;;;;;;;67.35;61.60;;;;;;;21.59;50.93;102015.34;5106260;28;20391;-71
2023/05/08 08:47:04;;;;;;;65.40;60.25;;;;;;;21.61;50.61;102018.66;5101562;28;20080;-75
2023/05/08 08:49:33;;;;;;;70.60;64.32;;;;;;;21.64;51.22;102013.69;5114366;27;20070;-71
2023/05/08 08:52:10;;;;;;;68.05;61.92;;;;;;;21.64;51.08;102016.44;5103955;27;20096;-71
2023/05/08 08:54:36;;;;;;;63.92;58.95;;;;;;;21.66;51.20;102014.22;5108516;27;20347;-74
2023/05/08 08:57:06;;;;;;;69.65;63.42;;;;;;;21.65;50.82;102018.91;5108130;28;20399;-73
2023/05/08 08:59:32;;;;;;;65.20;60.33;;;;;;;21.68;51.23;102018.34;5107911;27;20190;-71
2023/05/08 09:02:05;;;;;;;62.95;57.78;;;;;;;21.70;50.63;102012.56;5115315;27;20152;-84
2023/05/08 09:04:31;;;;;;;66.40;61.05;;;;;;;21.71;50.67;102012.25;5114056;27;20111;-73
2023/05/08 09:06:57;;;;;;;64.13;59.17;;;;;;;21.73;50.81;102015.53;5107437;27;20060;-78
2023/05/08 09:09:23;;;;;;;64.88;59.95;;;;;;;21.75;50.80;102012.50;5105905;28;20483;-73
2023/05/08 09:11:51;;;;;;;63.55;58.53;;;;;;;21.77;50.58;102007.53;5115536;27;20027;-72
2023/05/08 09:14:16;;;;;;;66.88;61.20;;;;;;;21.78;51.18;102017.44;5115836;27;20540;-80
2023/05/08 09:16:42;;;;;;;69.28;63.72;;;;;;;21.79;50.79;102008.88;5115304;27;20032;-79
2023/05/08 09:19:08;;;;;;;66.22;60.95;;;;;;;21.80;51.26;102007.78;5115937;27;20480;-74
2023/05/08 09:21:33;;;;;;;69.18;63.53;;;;;;;21.85;51.14;102006.94;5117396;27;20044;-73
2023/05/08 09:23:58;;;;;;;68.13;62.30;;;;;;;21.88;50.88;102014.59;5117045;27;20043;-72
2023/05/08 09:26:38;;;;;;;67.28;62.03;;;;;;;21.90;51.10;102014.28;5111549;27;20054;-74
2023/05/08 09:29:18;;;;;;;70.38;64.60;;;;;;;21.90;50.85;102015.13;5120740;27;20039;-72
2023/05/08 09:31:47;;;;;;;65.38;60.15;;;;;;;21.90;51.22;102015.13;5120083;27;20023;-77
2023/05/08 09:34:28;;;;;;;70.93;65.03;;;;;;;21.92;50.86;102012.06;5108065;27;20047;-71
2023/05/08 09:37:08;;;;;;;63.45;58.75;;;;;;;21.95;50.95;102006.84;5107383;27;20035;-78
2023/05/08 09:39:34;;;;;;;71.47;65.32;;;;;;;21.94;51.01;102016.19;5109885;28;20036;-81
2023/05/08 09:42:01;;;;;;;64.10;58.92;;;;;;;21.96;51.33;102013.16;5103688;28;20498;-71
2023/05/08 09:44:26;;;;;;;68.22;62.58;;;;;;;21.96;51.37;102008.47;5114799;27;20055;-72
2023/05/08 09:47:09;;;;;;;66.63;61.63;;;;;;;22.03;50.90;102008.13;5104593;27;20060;-71
2023/05/08 09:49:34;;;;;;;64.70;59.83;;;;;;;22.04;51.01;102010.59;5107195;27;20058;-77
2023/05/08 09:51:59;;;;;;;66.90;61.72;;;;;;;22.04;50.95;102010.59;5109822;27;20067;-72
2023/05/08 09:54:25;;;;;;;66.80;61.67;;;;;;;22.08;51.07;102007.28;5105810;28;20043;-72
2023/05/08 09:56:50;;;;;;;72.65;66.65;;;;;;;22.11;50.99;102009.44;5107893;27;20035;-75
2023/05/08 09:59:28;;;;;;;68.22;63.00;;;;;;;22.13;51.04;102007.22;5112109;27;20395;-75
2023/05/08 10:01:54;;;;;;;69.53;63.88;;;;;;;22.17;51.00;102011.84;5109712;27;20045;-76
2023/05/08 10:04:33;;;;;;;70.80;65.07;;;;;;;22.21;51.25;102006.63;5114727;27;20050;-77
2023/05/08 10:06:59;;;;;;;66.25;60.72;;;;;;;22.20;51.69;102002.22;5111107;28;20050;-74
2023/05/08 10:09:25;;;;;;;65.45;60.42;;;;;;;22.23;51.17;102007.97;5111544;27;20084;-75
2023/05/08 10:11:51;;;;;;;60.35;56.10;;;;;;;22.22;51.69;102005.50;5116905;27;20032;-72
2023/05/08 10:14:18;;;;;;;73.25;67.22;;;;;;;22.27;51.36;102007.38;5124616;27;20309;-72
2023/05/08 10:16:45;;;;;;;68.63;63.40;;;;;;;22.31;51.63;102011.19;5120438;27;20398;-74
2023/05/08 10:19:16;;;;;;;66.50;61.83;;;;;;;22.31;51.41;102014.78;5112394;27;20036;-73
2023/05/08 10:21:45;;;;;;;69.47;64.38;;;;;;;22.35;51.81;102010.34;5114679;27;20039;-75
2023/05/08 10:24:16;;;;;;;68.68;63.58;;;;;;;22.38;51.17;102003.44;5115410;27;20051;-76
2023/05/08 10:26:49;;;;;;;71.85;65.95;;;;;;;22.39;51.22;102005.88;5108313;27;20388;-75
2023/05/08 10:29:23;;;;;;;69.07;63.72;;;;;;;22.41;51.47;102000.91;5113237;27;20034;-76
2023/05/08 10:31:54;;;;;;;68.97;63.80;;;;;;;22.44;51.73;101997.56;5115490;27;20464;-72
2023/05/08 10:34:22;;;;;;;69.72;64.30;;;;;;;22.48;51.93;101997.81;5114266;27;20464;-73
2023/05/08 10:36:51;;;;;;;69.20;63.42;;;;;;;22.54;51.42;101996.63;5109211;28;20059;-76
2023/05/08 10:39:17;;;;;;;70.68;65.47;;;;;;;22.53;51.88;101994.16;5103922;27;20051;-73
2023/05/08 10:41:43;;;;;;;67.75;62.72;;;;;;;22.57;51.48;102000.72;5115531;27;20031;-72
2023/05/08 10:44:10;;;;;;;69.78;64.75;;;;;;;22.62;51.81;101998.72;5105838;27;20483;-77
2023/05/08 10:46:47;;;;;;;69.22;63.83;;;;;;;22.67;51.81;101993.16;5108961;27;20118;-74
2023/05/08 10:49:30;;;;;;;74.45;68.65;;;;;;;22.75;51.63;102007.38;5103946;28;20040;-75
2023/05/08 10:52:17;;;;;;;69.40;64.15;;;;;;;22.77;51.42;101997.72;5107263;27;20593;-72
2023/05/08 10:55:03;;;;;;;70.60;64.80;;;;;;;22.85;51.02;101991.53;5103511;28;20475;-76
2023/05/08 10:57:28;;;;;;;70.65;65.38;;;;;;;22.87;51.59;101991.25;5106428;28;20227;-72
2023/05/08 10:59:54;;;;;;;73.43;67.60;;;;;;;22.92;51.22;101988.44;5103718;28;20593;-80
2023/05/08 11:02:30;;;;;;;74.45;69.10;;;;;;;22.97;51.79;101995.81;5099966;27;20047;-75
2023/05/08 11:05:16;;;;;;;71.38;65.82;;;;;;;23.02;51.52;101991.06;5108467;27;20032;-72
2023/05/08 11:08:00;;;;;;;73.53;68.28;;;;;;;23.07;51.66;101987.44;5107596;27;20031;-73
2023/05/08 11:10:35;;;;;;;69.50;64.80;;;;;;;23.11;51.52;101986.56;5112239;27;20031;-77
2023/05/08 11:13:03;;;;;;;68.22;63.70;;;;;;;23.14;51.55;101982.38;5112819;27;20042;-75
2023/05/08 11:15:36;;;;;;;75.40;70.10;;;;;;;23.20;51.78;101970.16;5110869;27;20028;-77